sensor_id;sensor_type;location;lat;lon;timestamp;P1;durP1;ratioP1;P2;durP2;ratioP2
70927;SDS011;58587;53.034;18.576;2022-09-30T00:01:23;54.33;;;28.52;;
70927;SDS011;58587;53.034;18.576;2022-09-30T00:03:50;51.17;;;27.17;;
70927;SDS011;58587;53.034;18.576;2022-09-30T00:06:19;48.25;;;25.38;;
70927;SDS011;58587;53.034;18.576;2022-09-30T00:08:45;55.88;;;27.52;;
70927;SDS011;58587;53.034;18.576;2022-09-30T00:11:12;53.10;;;26.27;;
70927;SDS011;58587;53.034;18.576;2022-09-30T00:13:44;47.63;;;25.20;;
70927;SDS011;58587;53.034;18.576;2022-09-30T00:16:11;50.60;;;26.58;;
70927;SDS011;58587;53.034;18.576;2022-09-30T00:18:38;45.92;;;24.85;;
70927;SDS011;58587;53.034;18.576;2022-09-30T00:21:05;48.72;;;26.00;;
70927;SDS011;58587;53.034;18.576;2022-09-30T00:23:31;48.13;;;24.42;;
70927;SDS011;58587;53.034;18.576;2022-09-30T00:25:57;43.67;;;23.27;;
70927;SDS011;58587;53.034;18.576;2022-09-30T00:28:26;50.10;;;27.35;;
70927;SDS011;58587;53.034;18.576;2022-09-30T00:30:53;50.43;;;27.57;;
70927;SDS011;58587;53.034;18.576;2022-09-30T00:33:23;47.75;;;25.42;;
70927;SDS011;58587;53.034;18.576;2022-09-30T00:35:48;49.17;;;26.03;;
70927;SDS011;58587;53.034;18.576;2022-09-30T00:38:13;45.88;;;25.13;;
70927;SDS011;58587;53.034;18.576;2022-09-30T00:40:39;48.47;;;24.70;;
70927;SDS011;58587;53.034;18.576;2022-09-30T00:43:47;46.17;;;23.60;;
70927;SDS011;58587;53.034;18.576;2022-09-30T00:46:05;43.53;;;22.60;;
70927;SDS011;58587;53.034;18.576;2022-09-30T00:48:40;43.17;;;22.67;;
70927;SDS011;58587;53.034;18.576;2022-09-30T00:51:06;44.70;;;24.00;;
70927;SDS011;58587;53.034;18.576;2022-09-30T00:53:38;45.80;;;23.03;;
70927;SDS011;58587;53.034;18.576;2022-09-30T00:56:18;46.22;;;22.88;;
70927;SDS011;58587;53.034;18.576;2022-09-30T01:01:15;48.50;;;24.35;;
70927;SDS011;58587;53.034;18.576;2022-09-30T01:03:42;48.10;;;24.58;;
70927;SDS011;58587;53.034;18.576;2022-09-30T01:06:14;45.75;;;23.42;;
70927;SDS011;58587;53.034;18.576;2022-09-30T01:08:39;54.28;;;27.00;;
70927;SDS011;58587;53.034;18.576;2022-09-30T01:11:05;84.13;;;36.03;;
70927;SDS011;58587;53.034;18.576;2022-09-30T01:13:31;85.07;;;39.30;;
70927;SDS011;58587;53.034;18.576;2022-09-30T01:27:46;46.38;;;23.85;;
70927;SDS011;58587;53.034;18.576;2022-09-30T01:42:12;40.75;;;21.20;;
70927;SDS011;58587;53.034;18.576;2022-09-30T01:44:59;40.33;;;20.07;;
70927;SDS011;58587;53.034;18.576;2022-09-30T01:47:41;44.95;;;22.10;;
70927;SDS011;58587;53.034;18.576;2022-09-30T01:53:38;42.63;;;21.80;;
70927;SDS011;58587;53.034;18.576;2022-09-30T01:56:26;44.55;;;22.38;;
70927;SDS011;58587;53.034;18.576;2022-09-30T01:59:07;42.83;;;21.70;;
70927;SDS011;58587;53.034;18.576;2022-09-30T02:01:41;42.67;;;21.95;;
70927;SDS011;58587;53.034;18.576;2022-09-30T02:04:11;39.22;;;21.33;;
70927;SDS011;58587;53.034;18.576;2022-09-30T02:06:40;40.63;;;20.98;;
70927;SDS011;58587;53.034;18.576;2022-09-30T02:09:13;45.35;;;21.40;;
70927;SDS011;58587;53.034;18.576;2022-09-30T02:11:41;43.40;;;21.77;;
70927;SDS011;58587;53.034;18.576;2022-09-30T02:16:47;44.47;;;21.60;;
70927;SDS011;58587;53.034;18.576;2022-09-30T02:22:11;41.15;;;21.58;;
70927;SDS011;58587;53.034;18.576;2022-09-30T02:24:40;48.47;;;23.02;;
70927;SDS011;58587;53.034;18.576;2022-09-30T02:27:20;45.92;;;21.75;;
70927;SDS011;58587;53.034;18.576;2022-09-30T02:29:52;41.70;;;21.80;;
70927;SDS011;58587;53.034;18.576;2022-09-30T02:32:23;42.90;;;21.47;;
70927;SDS011;58587;53.034;18.576;2022-09-30T02:34:56;47.78;;;22.60;;
70927;SDS011;58587;53.034;18.576;2022-09-30T02:37:27;40.08;;;21.23;;
70927;SDS011;58587;53.034;18.576;2022-09-30T02:42:31;39.42;;;20.25;;
70927;SDS011;58587;53.034;18.576;2022-09-30T02:44:59;41.00;;;20.20;;
70927;SDS011;58587;53.034;18.576;2022-09-30T02:47:29;48.03;;;23.48;;
70927;SDS011;58587;53.034;18.576;2022-09-30T02:50:22;41.40;;;22.13;;
70927;SDS011;58587;53.034;18.576;2022-09-30T02:58:20;41.90;;;21.00;;
70927;SDS011;58587;53.034;18.576;2022-09-30T03:00:49;44.47;;;20.75;;
70927;SDS011;58587;53.034;18.576;2022-09-30T03:05:47;42.72;;;22.50;;
70927;SDS011;58587;53.034;18.576;2022-09-30T03:08:14;47.28;;;22.17;;
70927;SDS011;58587;53.034;18.576;2022-09-30T03:10:39;44.07;;;20.83;;
70927;SDS011;58587;53.034;18.576;2022-09-30T03:13:29;44.53;;;21.98;;
70927;SDS011;58587;53.034;18.576;2022-09-30T03:35:18;42.33;;;21.13;;
70927;SDS011;58587;53.034;18.576;2022-09-30T03:40:56;55.88;;;26.30;;
70927;SDS011;58587;53.034;18.576;2022-09-30T03:43:35;51.03;;;24.67;;
70927;SDS011;58587;53.034;18.576;2022-09-30T03:46:21;48.25;;;24.35;;
70927;SDS011;58587;53.034;18.576;2022-09-30T03:48:58;52.17;;;22.77;;
70927;SDS011;58587;53.034;18.576;2022-09-30T03:51:27;48.77;;;23.37;;
70927;SDS011;58587;53.034;18.576;2022-09-30T03:53:54;47.63;;;23.52;;
70927;SDS011;58587;53.034;18.576;2022-09-30T03:56:24;45.70;;;22.45;;
70927;SDS011;58587;53.034;18.576;2022-09-30T03:58:53;44.67;;;22.98;;
70927;SDS011;58587;53.034;18.576;2022-09-30T04:01:20;49.30;;;25.33;;
70927;SDS011;58587;53.034;18.576;2022-09-30T04:03:47;53.27;;;26.87;;
70927;SDS011;58587;53.034;18.576;2022-09-30T04:06:16;55.65;;;25.92;;
70927;SDS011;58587;53.034;18.576;2022-09-30T04:08:44;65.85;;;25.70;;
70927;SDS011;58587;53.034;18.576;2022-09-30T04:11:10;59.10;;;25.77;;
70927;SDS011;58587;53.034;18.576;2022-09-30T04:13:36;57.20;;;23.67;;
70927;SDS011;58587;53.034;18.576;2022-09-30T04:16:01;48.13;;;22.17;;
70927;SDS011;58587;53.034;18.576;2022-09-30T04:18:27;45.63;;;21.37;;
70927;SDS011;58587;53.034;18.576;2022-09-30T04:20:54;56.30;;;25.45;;
70927;SDS011;58587;53.034;18.576;2022-09-30T04:23:20;67.63;;;26.87;;
70927;SDS011;58587;53.034;18.576;2022-09-30T04:25:50;79.93;;;29.25;;
70927;SDS011;58587;53.034;18.576;2022-09-30T04:28:19;66.78;;;24.92;;
70927;SDS011;58587;53.034;18.576;2022-09-30T04:30:45;59.30;;;23.42;;
70927;SDS011;58587;53.034;18.576;2022-09-30T04:33:10;56.57;;;22.13;;
70927;SDS011;58587;53.034;18.576;2022-09-30T04:35:37;60.20;;;22.17;;
70927;SDS011;58587;53.034;18.576;2022-09-30T04:38:03;54.22;;;21.08;;
70927;SDS011;58587;53.034;18.576;2022-09-30T04:40:31;46.08;;;20.98;;
70927;SDS011;58587;53.034;18.576;2022-09-30T04:43:00;49.13;;;21.63;;
70927;SDS011;58587;53.034;18.576;2022-09-30T04:45:25;51.40;;;21.73;;
70927;SDS011;58587;53.034;18.576;2022-09-30T04:47:51;62.47;;;24.63;;
70927;SDS011;58587;53.034;18.576;2022-09-30T04:50:16;61.40;;;26.23;;
70927;SDS011;58587;53.034;18.576;2022-09-30T04:52:42;64.05;;;24.52;;
70927;SDS011;58587;53.034;18.576;2022-09-30T04:55:08;64.93;;;24.48;;
70927;SDS011;58587;53.034;18.576;2022-09-30T04:57:34;47.47;;;21.77;;
70927;SDS011;58587;53.034;18.576;2022-09-30T05:00:00;54.25;;;23.35;;
70927;SDS011;58587;53.034;18.576;2022-09-30T05:02:26;56.25;;;24.27;;
70927;SDS011;58587;53.034;18.576;2022-09-30T05:04:51;57.53;;;24.27;;
70927;SDS011;58587;53.034;18.576;2022-09-30T05:07:19;53.95;;;23.15;;
70927;SDS011;58587;53.034;18.576;2022-09-30T05:09:45;51.30;;;22.37;;
70927;SDS011;58587;53.034;18.576;2022-09-30T05:12:10;53.47;;;23.33;;
70927;SDS011;58587;53.034;18.576;2022-09-30T05:14:36;58.00;;;24.63;;
70927;SDS011;58587;53.034;18.576;2022-09-30T05:17:01;59.40;;;25.13;;
70927;SDS011;58587;53.034;18.576;2022-09-30T05:19:28;55.95;;;24.40;;
70927;SDS011;58587;53.034;18.576;2022-09-30T05:21:54;59.75;;;22.55;;
70927;SDS011;58587;53.034;18.576;2022-09-30T05:24:19;52.73;;;21.93;;
70927;SDS011;58587;53.034;18.576;2022-09-30T05:26:44;56.67;;;21.60;;
70927;SDS011;58587;53.034;18.576;2022-09-30T05:29:10;52.07;;;22.50;;
70927;SDS011;58587;53.034;18.576;2022-09-30T05:31:35;54.43;;;23.33;;
70927;SDS011;58587;53.034;18.576;2022-09-30T05:34:01;86.50;;;23.20;;
70927;SDS011;58587;53.034;18.576;2022-09-30T05:36:26;66.17;;;26.83;;
70927;SDS011;58587;53.034;18.576;2022-09-30T05:38:52;86.97;;;34.83;;
70927;SDS011;58587;53.034;18.576;2022-09-30T05:41:18;114.68;;;50.60;;
70927;SDS011;58587;53.034;18.576;2022-09-30T05:43:45;130.27;;;50.53;;
70927;SDS011;58587;53.034;18.576;2022-09-30T05:46:14;79.75;;;37.50;;
70927;SDS011;58587;53.034;18.576;2022-09-30T05:48:40;70.83;;;31.23;;
70927;SDS011;58587;53.034;18.576;2022-09-30T05:51:06;74.07;;;28.33;;
70927;SDS011;58587;53.034;18.576;2022-09-30T05:53:32;76.57;;;32.00;;
70927;SDS011;58587;53.034;18.576;2022-09-30T05:56:01;79.82;;;33.08;;
70927;SDS011;58587;53.034;18.576;2022-09-30T05:58:26;87.20;;;40.40;;
70927;SDS011;58587;53.034;18.576;2022-09-30T06:00:52;74.83;;;38.80;;
70927;SDS011;58587;53.034;18.576;2022-09-30T06:03:17;62.30;;;26.03;;
70927;SDS011;58587;53.034;18.576;2022-09-30T06:05:43;57.15;;;24.48;;
70927;SDS011;58587;53.034;18.576;2022-09-30T06:08:10;48.13;;;21.80;;
70927;SDS011;58587;53.034;18.576;2022-09-30T06:10:35;58.15;;;23.25;;
70927;SDS011;58587;53.034;18.576;2022-09-30T06:13:08;58.80;;;23.55;;
70927;SDS011;58587;53.034;18.576;2022-09-30T06:15:34;71.35;;;24.85;;
70927;SDS011;58587;53.034;18.576;2022-09-30T06:18:03;61.75;;;22.83;;
70927;SDS011;58587;53.034;18.576;2022-09-30T06:20:28;59.10;;;22.20;;
70927;SDS011;58587;53.034;18.576;2022-09-30T06:22:54;51.45;;;23.85;;
70927;SDS011;58587;53.034;18.576;2022-09-30T06:25:23;48.63;;;22.05;;
70927;SDS011;58587;53.034;18.576;2022-09-30T06:27:48;53.37;;;21.97;;
70927;SDS011;58587;53.034;18.576;2022-09-30T06:30:14;49.93;;;23.13;;
70927;SDS011;58587;53.034;18.576;2022-09-30T06:32:40;47.10;;;23.55;;
70927;SDS011;58587;53.034;18.576;2022-09-30T06:35:06;49.25;;;22.58;;
70927;SDS011;58587;53.034;18.576;2022-09-30T06:37:32;58.08;;;24.00;;
70927;SDS011;58587;53.034;18.576;2022-09-30T06:39:59;58.30;;;23.35;;
70927;SDS011;58587;53.034;18.576;2022-09-30T06:42:25;59.75;;;24.95;;
70927;SDS011;58587;53.034;18.576;2022-09-30T06:44:50;70.40;;;23.00;;
70927;SDS011;58587;53.034;18.576;2022-09-30T06:47:16;56.80;;;24.47;;
70927;SDS011;58587;53.034;18.576;2022-09-30T06:49:41;54.90;;;24.42;;
70927;SDS011;58587;53.034;18.576;2022-09-30T06:52:08;54.03;;;24.60;;
70927;SDS011;58587;53.034;18.576;2022-09-30T06:54:33;58.88;;;26.52;;
70927;SDS011;58587;53.034;18.576;2022-09-30T06:56:59;59.03;;;26.60;;
70927;SDS011;58587;53.034;18.576;2022-09-30T06:59:26;58.53;;;25.58;;
70927;SDS011;58587;53.034;18.576;2022-09-30T07:01:51;56.05;;;26.05;;
70927;SDS011;58587;53.034;18.576;2022-09-30T07:04:17;59.83;;;27.10;;
70927;SDS011;58587;53.034;18.576;2022-09-30T07:06:43;56.78;;;25.50;;
70927;SDS011;58587;53.034;18.576;2022-09-30T07:09:09;55.90;;;27.03;;
70927;SDS011;58587;53.034;18.576;2022-09-30T07:11:35;57.05;;;28.02;;
70927;SDS011;58587;53.034;18.576;2022-09-30T07:14:02;69.25;;;30.08;;
70927;SDS011;58587;53.034;18.576;2022-09-30T07:16:28;64.45;;;28.98;;
70927;SDS011;58587;53.034;18.576;2022-09-30T07:18:55;58.92;;;27.83;;
70927;SDS011;58587;53.034;18.576;2022-09-30T07:21:22;57.75;;;27.98;;
70927;SDS011;58587;53.034;18.576;2022-09-30T07:23:47;57.73;;;28.43;;
70927;SDS011;58587;53.034;18.576;2022-09-30T07:26:14;53.67;;;25.80;;
70927;SDS011;58587;53.034;18.576;2022-09-30T07:28:41;55.40;;;28.60;;
70927;SDS011;58587;53.034;18.576;2022-09-30T07:31:09;64.40;;;27.65;;
70927;SDS011;58587;53.034;18.576;2022-09-30T07:33:36;55.70;;;27.40;;
70927;SDS011;58587;53.034;18.576;2022-09-30T07:36:03;60.78;;;31.05;;
70927;SDS011;58587;53.034;18.576;2022-09-30T07:38:32;67.50;;;33.83;;
70927;SDS011;58587;53.034;18.576;2022-09-30T07:41:02;68.80;;;33.85;;
70927;SDS011;58587;53.034;18.576;2022-09-30T07:43:31;58.05;;;30.98;;
70927;SDS011;58587;53.034;18.576;2022-09-30T07:46:11;62.55;;;31.67;;
70927;SDS011;58587;53.034;18.576;2022-09-30T07:48:39;62.25;;;29.85;;
70927;SDS011;58587;53.034;18.576;2022-09-30T07:53:43;62.67;;;32.75;;
70927;SDS011;58587;53.034;18.576;2022-09-30T07:56:11;56.40;;;30.48;;
70927;SDS011;58587;53.034;18.576;2022-09-30T07:58:37;58.35;;;30.73;;
70927;SDS011;58587;53.034;18.576;2022-09-30T08:01:03;60.63;;;30.13;;
70927;SDS011;58587;53.034;18.576;2022-09-30T08:03:31;56.33;;;29.20;;
70927;SDS011;58587;53.034;18.576;2022-09-30T08:06:02;56.17;;;29.58;;
70927;SDS011;58587;53.034;18.576;2022-09-30T08:08:30;50.70;;;28.33;;
70927;SDS011;58587;53.034;18.576;2022-09-30T08:10:59;54.67;;;28.00;;
70927;SDS011;58587;53.034;18.576;2022-09-30T08:13:25;54.00;;;28.38;;
70927;SDS011;58587;53.034;18.576;2022-09-30T08:15:51;55.90;;;28.30;;
70927;SDS011;58587;53.034;18.576;2022-09-30T08:18:16;55.63;;;28.40;;
70927;SDS011;58587;53.034;18.576;2022-09-30T08:20:42;47.88;;;25.23;;
70927;SDS011;58587;53.034;18.576;2022-09-30T08:23:07;46.60;;;24.60;;
70927;SDS011;58587;53.034;18.576;2022-09-30T08:25:32;41.17;;;22.93;;
70927;SDS011;58587;53.034;18.576;2022-09-30T08:27:58;42.03;;;23.33;;
70927;SDS011;58587;53.034;18.576;2022-09-30T08:30:23;42.87;;;24.17;;
70927;SDS011;58587;53.034;18.576;2022-09-30T08:32:49;42.97;;;22.37;;
70927;SDS011;58587;53.034;18.576;2022-09-30T08:35:14;39.70;;;22.20;;
70927;SDS011;58587;53.034;18.576;2022-09-30T08:37:40;45.88;;;23.02;;
70927;SDS011;58587;53.034;18.576;2022-09-30T08:40:06;44.63;;;23.93;;
70927;SDS011;58587;53.034;18.576;2022-09-30T08:50:15;30.83;;;18.17;;
70927;SDS011;58587;53.034;18.576;2022-09-30T08:52:48;33.37;;;18.67;;
70927;SDS011;58587;53.034;18.576;2022-09-30T08:55:20;40.70;;;24.75;;
70927;SDS011;58587;53.034;18.576;2022-09-30T08:57:48;36.33;;;20.95;;
70927;SDS011;58587;53.034;18.576;2022-09-30T09:00:16;39.78;;;22.20;;
70927;SDS011;58587;53.034;18.576;2022-09-30T09:02:44;36.58;;;20.95;;
70927;SDS011;58587;53.034;18.576;2022-09-30T09:08:22;33.83;;;21.03;;
70927;SDS011;58587;53.034;18.576;2022-09-30T09:10:46;29.35;;;17.95;;
70927;SDS011;58587;53.034;18.576;2022-09-30T09:19:01;31.13;;;18.98;;
70927;SDS011;58587;53.034;18.576;2022-09-30T09:21:39;29.37;;;17.93;;
70927;SDS011;58587;53.034;18.576;2022-09-30T09:24:18;28.33;;;18.65;;
70927;SDS011;58587;53.034;18.576;2022-09-30T09:26:47;30.05;;;19.35;;
70927;SDS011;58587;53.034;18.576;2022-09-30T09:32:02;33.58;;;23.08;;
70927;SDS011;58587;53.034;18.576;2022-09-30T09:34:38;31.27;;;19.97;;
70927;SDS011;58587;53.034;18.576;2022-09-30T09:37:07;30.20;;;18.73;;
70927;SDS011;58587;53.034;18.576;2022-09-30T09:39:51;46.38;;;24.77;;
70927;SDS011;58587;53.034;18.576;2022-09-30T09:42:41;40.45;;;21.00;;
70927;SDS011;58587;53.034;18.576;2022-09-30T09:47:55;32.57;;;19.13;;
70927;SDS011;58587;53.034;18.576;2022-09-30T09:50:22;30.00;;;18.30;;
70927;SDS011;58587;53.034;18.576;2022-09-30T09:53:12;59.80;;;21.77;;
70927;SDS011;58587;53.034;18.576;2022-09-30T09:55:45;35.05;;;16.42;;
70927;SDS011;58587;53.034;18.576;2022-09-30T09:58:12;23.73;;;15.30;;
70927;SDS011;58587;53.034;18.576;2022-09-30T10:00:41;24.80;;;16.70;;
70927;SDS011;58587;53.034;18.576;2022-09-30T10:03:11;22.15;;;14.85;;
70927;SDS011;58587;53.034;18.576;2022-09-30T10:05:43;21.42;;;13.38;;
70927;SDS011;58587;53.034;18.576;2022-09-30T10:08:18;22.30;;;14.45;;
70927;SDS011;58587;53.034;18.576;2022-09-30T10:10:49;25.80;;;16.23;;
70927;SDS011;58587;53.034;18.576;2022-09-30T10:13:31;25.03;;;15.17;;
70927;SDS011;58587;53.034;18.576;2022-09-30T10:16:08;24.05;;;15.25;;
70927;SDS011;58587;53.034;18.576;2022-09-30T10:18:59;25.75;;;16.65;;
70927;SDS011;58587;53.034;18.576;2022-09-30T10:21:27;21.30;;;14.18;;
70927;SDS011;58587;53.034;18.576;2022-09-30T10:23:53;21.00;;;14.40;;
70927;SDS011;58587;53.034;18.576;2022-09-30T10:26:20;19.57;;;12.90;;
70927;SDS011;58587;53.034;18.576;2022-09-30T10:34:09;17.58;;;12.13;;
70927;SDS011;58587;53.034;18.576;2022-09-30T10:36:50;22.25;;;14.20;;
70927;SDS011;58587;53.034;18.576;2022-09-30T10:44:35;15.30;;;10.37;;
70927;SDS011;58587;53.034;18.576;2022-09-30T10:47:07;11.70;;;8.73;;
70927;SDS011;58587;53.034;18.576;2022-09-30T10:49:35;12.75;;;9.52;;
70927;SDS011;58587;53.034;18.576;2022-09-30T10:52:05;14.13;;;8.93;;
70927;SDS011;58587;53.034;18.576;2022-09-30T10:54:59;17.20;;;8.85;;
70927;SDS011;58587;53.034;18.576;2022-09-30T10:57:31;12.63;;;8.80;;
70927;SDS011;58587;53.034;18.576;2022-09-30T10:59:59;12.57;;;9.38;;
70927;SDS011;58587;53.034;18.576;2022-09-30T11:07:53;11.30;;;8.15;;
70927;SDS011;58587;53.034;18.576;2022-09-30T11:13:03;9.38;;;7.20;;
70927;SDS011;58587;53.034;18.576;2022-09-30T11:15:34;8.80;;;7.20;;
70927;SDS011;58587;53.034;18.576;2022-09-30T11:20:53;10.73;;;7.72;;
70927;SDS011;58587;53.034;18.576;2022-09-30T11:23:27;10.73;;;7.90;;
70927;SDS011;58587;53.034;18.576;2022-09-30T11:29:00;9.55;;;7.15;;
70927;SDS011;58587;53.034;18.576;2022-09-30T11:59:35;10.27;;;7.63;;
70927;SDS011;58587;53.034;18.576;2022-09-30T12:02:11;11.07;;;8.50;;
70927;SDS011;58587;53.034;18.576;2022-09-30T12:04:59;12.37;;;8.53;;
70927;SDS011;58587;53.034;18.576;2022-09-30T12:07:34;10.15;;;7.55;;
70927;SDS011;58587;53.034;18.576;2022-09-30T12:10:06;14.90;;;7.80;;
70927;SDS011;58587;53.034;18.576;2022-09-30T12:12:40;9.95;;;6.75;;
70927;SDS011;58587;53.034;18.576;2022-09-30T12:15:11;9.73;;;6.72;;
70927;SDS011;58587;53.034;18.576;2022-09-30T12:25:40;11.90;;;8.02;;
70927;SDS011;58587;53.034;18.576;2022-09-30T12:50:04;10.52;;;7.93;;
70927;SDS011;58587;53.034;18.576;2022-09-30T12:52:32;11.13;;;7.32;;
70927;SDS011;58587;53.034;18.576;2022-09-30T12:55:01;9.07;;;6.47;;
70927;SDS011;58587;53.034;18.576;2022-09-30T12:57:33;9.77;;;7.03;;
70927;SDS011;58587;53.034;18.576;2022-09-30T13:00:05;9.80;;;6.78;;
70927;SDS011;58587;53.034;18.576;2022-09-30T13:02:39;9.02;;;6.60;;
70927;SDS011;58587;53.034;18.576;2022-09-30T13:08:07;9.82;;;6.85;;
70927;SDS011;58587;53.034;18.576;2022-09-30T13:10:33;9.33;;;7.10;;
70927;SDS011;58587;53.034;18.576;2022-09-30T13:21:35;11.75;;;7.75;;
70927;SDS011;58587;53.034;18.576;2022-09-30T13:26:33;16.10;;;8.32;;
70927;SDS011;58587;53.034;18.576;2022-09-30T13:31:32;14.80;;;9.00;;
70927;SDS011;58587;53.034;18.576;2022-09-30T13:34:23;13.85;;;8.40;;
70927;SDS011;58587;53.034;18.576;2022-09-30T13:52:50;17.42;;;12.73;;
70927;SDS011;58587;53.034;18.576;2022-09-30T13:55:21;14.93;;;9.63;;
70927;SDS011;58587;53.034;18.576;2022-09-30T13:58:00;18.30;;;13.67;;
70927;SDS011;58587;53.034;18.576;2022-09-30T14:01:33;11.57;;;8.45;;
70927;SDS011;58587;53.034;18.576;2022-09-30T14:03:43;8.07;;;5.65;;
70927;SDS011;58587;53.034;18.576;2022-09-30T14:20:21;12.85;;;7.95;;
70927;SDS011;58587;53.034;18.576;2022-09-30T14:23:11;10.18;;;6.75;;
70927;SDS011;58587;53.034;18.576;2022-09-30T14:25:40;12.47;;;8.43;;
70927;SDS011;58587;53.034;18.576;2022-09-30T14:28:16;40.10;;;22.27;;
70927;SDS011;58587;53.034;18.576;2022-09-30T14:30:57;61.63;;;35.38;;
70927;SDS011;58587;53.034;18.576;2022-09-30T14:33:34;19.20;;;12.20;;
70927;SDS011;58587;53.034;18.576;2022-09-30T14:36:01;8.63;;;6.15;;
70927;SDS011;58587;53.034;18.576;2022-09-30T14:38:57;10.20;;;6.97;;
70927;SDS011;58587;53.034;18.576;2022-09-30T14:41:25;8.52;;;6.63;;
70927;SDS011;58587;53.034;18.576;2022-09-30T14:43:53;8.20;;;5.38;;
70927;SDS011;58587;53.034;18.576;2022-09-30T14:46:24;10.25;;;6.63;;
70927;SDS011;58587;53.034;18.576;2022-09-30T14:48:54;7.00;;;4.75;;
70927;SDS011;58587;53.034;18.576;2022-09-30T14:51:23;9.03;;;5.97;;
70927;SDS011;58587;53.034;18.576;2022-09-30T14:58:59;8.82;;;6.00;;
70927;SDS011;58587;53.034;18.576;2022-09-30T15:01:36;18.45;;;12.77;;
70927;SDS011;58587;53.034;18.576;2022-09-30T15:04:09;12.47;;;7.33;;
70927;SDS011;58587;53.034;18.576;2022-09-30T15:06:44;13.35;;;9.65;;
70927;SDS011;58587;53.034;18.576;2022-09-30T15:11:44;13.65;;;8.52;;
70927;SDS011;58587;53.034;18.576;2022-09-30T15:14:17;10.27;;;5.80;;
70927;SDS011;58587;53.034;18.576;2022-09-30T15:16:48;7.53;;;5.50;;
70927;SDS011;58587;53.034;18.576;2022-09-30T15:19:23;8.55;;;5.95;;
70927;SDS011;58587;53.034;18.576;2022-09-30T15:21:54;13.32;;;8.00;;
70927;SDS011;58587;53.034;18.576;2022-09-30T15:24:26;15.07;;;8.80;;
70927;SDS011;58587;53.034;18.576;2022-09-30T15:26:55;15.20;;;9.93;;
70927;SDS011;58587;53.034;18.576;2022-09-30T15:29:21;14.30;;;8.73;;
70927;SDS011;58587;53.034;18.576;2022-09-30T15:32:32;32.08;;;15.23;;
70927;SDS011;58587;53.034;18.576;2022-09-30T15:34:39;14.63;;;8.50;;
70927;SDS011;58587;53.034;18.576;2022-09-30T15:37:12;17.87;;;8.90;;
70927;SDS011;58587;53.034;18.576;2022-09-30T15:39:45;23.88;;;11.25;;
70927;SDS011;58587;53.034;18.576;2022-09-30T15:47:55;10.85;;;6.95;;
70927;SDS011;58587;53.034;18.576;2022-09-30T15:53:15;8.93;;;5.32;;
70927;SDS011;58587;53.034;18.576;2022-09-30T15:55:49;9.63;;;5.35;;
70927;SDS011;58587;53.034;18.576;2022-09-30T16:03:53;9.13;;;6.27;;
70927;SDS011;58587;53.034;18.576;2022-09-30T16:06:31;30.75;;;20.33;;
70927;SDS011;58587;53.034;18.576;2022-09-30T16:09:00;37.40;;;23.15;;
70927;SDS011;58587;53.034;18.576;2022-09-30T16:13:56;44.83;;;25.30;;
70927;SDS011;58587;53.034;18.576;2022-09-30T16:16:25;25.15;;;14.50;;
70927;SDS011;58587;53.034;18.576;2022-09-30T16:18:55;26.73;;;15.40;;
70927;SDS011;58587;53.034;18.576;2022-09-30T16:29:21;55.30;;;29.25;;
70927;SDS011;58587;53.034;18.576;2022-09-30T16:31:48;57.15;;;29.58;;
70927;SDS011;58587;53.034;18.576;2022-09-30T16:34:20;80.97;;;35.80;;
70927;SDS011;58587;53.034;18.576;2022-09-30T16:36:50;107.25;;;43.78;;
70927;SDS011;58587;53.034;18.576;2022-09-30T16:39:18;127.78;;;47.60;;
70927;SDS011;58587;53.034;18.576;2022-09-30T16:41:44;156.07;;;53.77;;
70927;SDS011;58587;53.034;18.576;2022-09-30T16:44:10;139.63;;;51.33;;
70927;SDS011;58587;53.034;18.576;2022-09-30T16:46:37;153.02;;;55.97;;
70927;SDS011;58587;53.034;18.576;2022-09-30T16:49:14;158.23;;;59.03;;
70927;SDS011;58587;53.034;18.576;2022-09-30T16:51:40;156.52;;;59.65;;
70927;SDS011;58587;53.034;18.576;2022-09-30T16:54:06;143.83;;;51.07;;
70927;SDS011;58587;53.034;18.576;2022-09-30T16:56:31;120.80;;;42.27;;
70927;SDS011;58587;53.034;18.576;2022-09-30T16:58:57;112.93;;;39.33;;
70927;SDS011;58587;53.034;18.576;2022-09-30T17:01:23;102.00;;;34.97;;
70927;SDS011;58587;53.034;18.576;2022-09-30T17:03:49;84.80;;;30.50;;
70927;SDS011;58587;53.034;18.576;2022-09-30T17:06:17;66.25;;;23.85;;
70927;SDS011;58587;53.034;18.576;2022-09-30T17:08:44;67.77;;;22.70;;
70927;SDS011;58587;53.034;18.576;2022-09-30T17:11:12;60.15;;;23.90;;
70927;SDS011;58587;53.034;18.576;2022-09-30T17:13:39;60.20;;;23.30;;
70927;SDS011;58587;53.034;18.576;2022-09-30T17:16:05;64.35;;;25.27;;
70927;SDS011;58587;53.034;18.576;2022-09-30T17:18:30;109.10;;;38.90;;
70927;SDS011;58587;53.034;18.576;2022-09-30T17:20:56;132.15;;;47.17;;
70927;SDS011;58587;53.034;18.576;2022-09-30T17:23:22;113.03;;;41.90;;
70927;SDS011;58587;53.034;18.576;2022-09-30T17:25:49;87.63;;;33.40;;
70927;SDS011;58587;53.034;18.576;2022-09-30T17:28:15;62.60;;;26.77;;
70927;SDS011;58587;53.034;18.576;2022-09-30T17:30:41;45.23;;;21.73;;
70927;SDS011;58587;53.034;18.576;2022-09-30T17:33:08;35.42;;;18.73;;
70927;SDS011;58587;53.034;18.576;2022-09-30T17:35:35;37.20;;;19.83;;
70927;SDS011;58587;53.034;18.576;2022-09-30T17:38:12;37.78;;;21.45;;
70927;SDS011;58587;53.034;18.576;2022-09-30T17:40:38;35.90;;;20.50;;
70927;SDS011;58587;53.034;18.576;2022-09-30T17:43:22;38.25;;;18.88;;
70927;SDS011;58587;53.034;18.576;2022-09-30T17:45:49;31.73;;;17.02;;
70927;SDS011;58587;53.034;18.576;2022-09-30T17:48:16;30.20;;;17.45;;
70927;SDS011;58587;53.034;18.576;2022-09-30T17:50:43;26.55;;;15.90;;
70927;SDS011;58587;53.034;18.576;2022-09-30T17:53:11;27.40;;;15.63;;
70927;SDS011;58587;53.034;18.576;2022-09-30T17:55:41;24.58;;;15.68;;
70927;SDS011;58587;53.034;18.576;2022-09-30T17:58:13;26.30;;;15.13;;
70927;SDS011;58587;53.034;18.576;2022-09-30T18:00:41;24.38;;;14.77;;
70927;SDS011;58587;53.034;18.576;2022-09-30T18:03:07;22.83;;;14.93;;
70927;SDS011;58587;53.034;18.576;2022-09-30T18:05:34;33.92;;;18.00;;
70927;SDS011;58587;53.034;18.576;2022-09-30T18:08:00;36.58;;;19.75;;
70927;SDS011;58587;53.034;18.576;2022-09-30T18:10:26;35.55;;;21.00;;
70927;SDS011;58587;53.034;18.576;2022-09-30T18:12:52;48.80;;;26.00;;
70927;SDS011;58587;53.034;18.576;2022-09-30T18:15:19;56.25;;;28.80;;
70927;SDS011;58587;53.034;18.576;2022-09-30T18:17:48;68.88;;;33.33;;
70927;SDS011;58587;53.034;18.576;2022-09-30T18:20:14;70.85;;;36.55;;
70927;SDS011;58587;53.034;18.576;2022-09-30T18:22:41;90.95;;;44.22;;
70927;SDS011;58587;53.034;18.576;2022-09-30T18:25:07;97.03;;;46.60;;
70927;SDS011;58587;53.034;18.576;2022-09-30T18:27:46;108.90;;;49.92;;
70927;SDS011;58587;53.034;18.576;2022-09-30T18:30:12;100.18;;;49.65;;
70927;SDS011;58587;53.034;18.576;2022-09-30T18:32:38;124.22;;;56.92;;
70927;SDS011;58587;53.034;18.576;2022-09-30T18:35:04;127.30;;;57.70;;
70927;SDS011;58587;53.034;18.576;2022-09-30T18:37:37;121.55;;;56.63;;
70927;SDS011;58587;53.034;18.576;2022-09-30T18:40:04;120.00;;;55.33;;